Time;durP1;ratioP1;P1;durP2;ratioP2;P2;SDS_P1;SDS_P2;PMS_P1;PMS_P2;Temp;Humidity;BMP_temperature;BMP_pressure;BME280_temperature;BME280_humidity;BME280_pressure;Samples;Min_cycle;Max_cycle;Signal;HPM_P1;HPM_P2
2022/07/23 00:00:53;;;;;;;7.67;7.07;;;22.80;82.80;;;;;;5078414;28;20262;-52
2022/07/23 00:03:19;;;;;;;7.43;6.83;;;22.70;83.10;;;;;;5079065;28;20170;-49
2022/07/23 00:05:44;;;;;;;7.33;6.73;;;22.50;83.80;;;;;;5079726;28;20211;-49
2022/07/23 00:08:10;;;;;;;7.50;6.90;;;22.50;84.00;;;;;;5079301;28;20183;-51
2022/07/23 00:10:36;;;;;;;7.70;7.00;;;22.50;83.90;;;;;;5079540;28;20588;-52
2022/07/23 00:13:01;;;;;;;7.67;6.87;;;22.40;84.30;;;;;;5079175;28;20181;-53
2022/07/23 00:15:27;;;;;;;7.27;6.60;;;22.50;84.60;;;;;;5078422;28;20271;-51
2022/07/23 00:17:53;;;;;;;7.30;6.60;;;22.30;84.60;;;;;;5078684;28;20198;-49
2022/07/23 00:20:19;;;;;;;7.90;7.20;;;22.40;84.60;;;;;;5078438;28;20573;-53
2022/07/23 00:22:53;;;;;;;6.80;6.10;;;22.30;85.00;;;;;;5078657;28;20289;-54
2022/07/23 00:25:19;;;;;;;6.73;6.10;;;22.30;85.80;;;;;;5078931;28;20504;-54
2022/07/23 00:27:45;;;;;;;7.10;6.50;;;22.30;86.30;;;;;;5078392;28;20431;-54
2022/07/23 00:30:11;;;;;;;7.33;6.60;;;22.10;87.90;;;;;;5079402;28;20430;-50
2022/07/23 00:32:47;;;;;;;7.20;6.60;;;22.10;89.20;;;;;;5079708;28;20326;-51
2022/07/23 00:35:14;;;;;;;6.80;6.10;;;22.00;90.40;;;;;;5079845;28;20414;-51
2022/07/23 00:37:39;;;;;;;6.93;6.40;;;21.90;90.90;;;;;;5080013;28;20538;-50
2022/07/23 00:40:05;;;;;;;6.97;6.47;;;21.90;91.20;;;;;;5080011;28;20519;-53
2022/07/23 00:42:32;;;;;;;7.30;6.70;;;21.80;91.70;;;;;;5077897;28;20190;-49
2022/07/23 00:44:58;;;;;;;6.83;6.23;;;21.80;92.10;;;;;;5077782;28;21097;-51
2022/07/23 00:47:23;;;;;;;7.23;6.53;;;21.80;92.40;;;;;;5078575;28;20433;-51
2022/07/23 00:49:49;;;;;;;6.90;6.40;;;21.70;92.50;;;;;;5077389;28;20168;-52
2022/07/23 00:52:15;;;;;;;7.37;6.77;;;21.70;92.80;;;;;;5078569;28;20194;-54
2022/07/23 00:54:41;;;;;;;7.90;7.20;;;21.70;92.50;;;;;;5078566;28;20170;-51
2022/07/23 00:57:07;;;;;;;6.80;6.20;;;21.70;92.60;;;;;;5078364;28;20440;-50
2022/07/23 00:59:33;;;;;;;7.60;7.00;;;21.70;92.30;;;;;;5079317;28;20413;-54
2022/07/23 01:01:58;;;;;;;7.17;6.57;;;21.70;92.60;;;;;;5078302;28;20581;-54
2022/07/23 01:04:24;;;;;;;7.00;6.43;;;21.60;92.30;;;;;;5078398;28;20210;-52
2022/07/23 01:06:49;;;;;;;6.60;6.10;;;21.70;92.20;;;;;;5078934;28;20190;-53
2022/07/23 01:09:15;;;;;;;6.87;6.27;;;21.60;92.20;;;;;;5077591;28;20174;-52
2022/07/23 01:11:41;;;;;;;7.00;6.40;;;21.60;91.90;;;;;;5078415;28;20185;-49
2022/07/23 01:14:17;;;;;;;6.80;6.20;;;21.70;91.60;;;;;;5079887;28;20175;-52
2022/07/23 01:16:45;;;;;;;7.67;6.50;;;21.70;91.80;;;;;;5061730;28;20443;-50
2022/07/23 01:19:11;;;;;;;7.50;6.90;;;21.70;91.90;;;;;;5079374;28;20420;-51
2022/07/23 01:21:46;;;;;;;6.43;5.93;;;21.60;91.70;;;;;;5078818;28;20432;-53
2022/07/23 01:24:12;;;;;;;7.00;6.40;;;21.70;91.60;;;;;;5079471;28;20464;-52
2022/07/23 01:26:40;;;;;;;7.20;6.40;;;21.60;91.70;;;;;;5061541;28;20424;-52
2022/07/23 01:29:06;;;;;;;8.00;7.30;;;21.60;91.90;;;;;;5079147;28;20423;-50
2022/07/23 01:31:32;;;;;;;6.00;5.50;;;21.70;92.10;;;;;;5077801;28;20537;-50
2022/07/23 01:33:57;;;;;;;6.70;6.10;;;21.70;91.90;;;;;;5078976;28;20421;-54
2022/07/23 01:36:23;;;;;;;6.73;6.23;;;21.80;91.90;;;;;;5078725;28;20438;-50
2022/07/23 01:38:49;;;;;;;7.70;7.10;;;21.80;92.50;;;;;;5078824;28;20182;-54
2022/07/23 01:41:14;;;;;;;7.00;6.40;;;21.80;92.80;;;;;;5078876;28;20181;-53
2022/07/23 01:43:40;;;;;;;6.77;6.27;;;21.80;93.10;;;;;;5078682;28;20558;-50
2022/07/23 01:46:06;;;;;;;7.50;6.90;;;21.80;92.70;;;;;;5078063;28;20258;-54
2022/07/23 01:48:31;;;;;;;6.67;6.17;;;21.80;92.90;;;;;;5078397;28;20603;-54
2022/07/23 01:50:57;;;;;;;7.13;6.53;;;21.70;93.10;;;;;;5077873;28;20316;-49
2022/07/23 01:53:22;;;;;;;7.00;6.23;;;21.70;93.20;;;;;;5077224;28;20247;-54
2022/07/23 01:55:48;;;;;;;6.23;5.73;;;21.70;93.30;;;;;;5075829;28;20190;-52
2022/07/23 01:58:14;;;;;;;6.70;6.10;;;21.70;93.50;;;;;;5076858;28;20198;-52
2022/07/23 02:00:39;;;;;;;6.80;6.10;;;21.70;94.00;;;;;;5076842;28;20186;-52
2022/07/23 02:03:05;;;;;;;6.63;6.03;;;21.70;93.80;;;;;;5076590;28;20476;-51
2022/07/23 02:05:31;;;;;;;7.30;6.70;;;21.80;93.40;;;;;;5076718;28;20208;-52
2022/07/23 02:08:00;;;;;;;6.50;6.00;;;21.90;93.00;;;;;;5077175;28;20469;-55
2022/07/23 02:10:26;;;;;;;6.47;5.97;;;21.90;92.90;;;;;;5077766;28;20695;-54
2022/07/23 02:12:52;;;;;;;6.00;5.50;;;21.90;93.10;;;;;;5077388;28;20416;-54
2022/07/23 02:15:17;;;;;;;6.43;5.93;;;21.80;92.90;;;;;;5076391;28;20531;-53
2022/07/23 02:17:43;;;;;;;7.40;6.70;;;21.80;93.00;;;;;;5077026;28;20218;-54
2022/07/23 02:20:10;;;;;;;7.50;6.80;;;21.70;93.20;;;;;;5076090;28;20177;-53
2022/07/23 02:22:36;;;;;;;6.10;5.60;;;21.60;93.30;;;;;;5077345;28;20265;-53
2022/07/23 02:25:03;;;;;;;6.93;6.33;;;21.60;93.70;;;;;;5057295;28;20589;-51
2022/07/23 02:27:28;;;;;;;6.87;6.27;;;21.50;93.80;;;;;;5054499;28;20179;-51
2022/07/23 02:29:54;;;;;;;7.20;6.50;;;21.40;94.00;;;;;;5056175;28;21310;-49
2022/07/23 02:32:21;;;;;;;7.23;6.50;;;21.30;94.10;;;;;;5056821;28;20593;-53
2022/07/23 02:34:47;;;;;;;7.00;6.27;;;21.20;94.20;;;;;;5057093;28;20288;-51
2022/07/23 02:37:13;;;;;;;7.10;6.50;;;21.10;94.60;;;;;;5056876;28;20422;-49
2022/07/23 02:39:39;;;;;;;7.67;7.07;;;21.10;94.50;;;;;;5055724;28;20434;-50
2022/07/23 02:42:04;;;;;;;7.20;6.50;;;21.10;94.30;;;;;;5056865;28;20430;-53
2022/07/23 02:44:30;;;;;;;7.43;6.73;;;21.00;94.00;;;;;;5075368;28;20492;-52
2022/07/23 02:46:56;;;;;;;7.97;7.30;;;21.00;94.00;;;;;;5076757;28;20196;-50
2022/07/23 02:49:21;;;;;;;6.60;6.00;;;21.10;93.80;;;;;;5076678;28;20181;-52
2022/07/23 02:51:47;;;;;;;7.80;7.20;;;21.20;93.70;;;;;;5077651;28;20181;-52
2022/07/23 02:54:12;;;;;;;7.80;6.97;;;21.20;93.70;;;;;;5077797;28;20185;-49
2022/07/23 02:56:38;;;;;;;7.37;6.70;;;21.30;94.20;;;;;;5077162;28;20458;-49
2022/07/23 02:59:04;;;;;;;6.23;5.73;;;21.40;94.00;;;;;;5077505;28;20259;-48
2022/07/23 03:01:29;;;;;;;8.23;7.43;;;21.50;93.70;;;;;;5077492;28;20182;-51
2022/07/23 03:03:55;;;;;;;7.43;6.77;;;21.60;93.70;;;;;;5077376;28;20189;-53
2022/07/23 03:06:20;;;;;;;7.60;7.00;;;21.60;93.70;;;;;;5076701;28;20186;-51
2022/07/23 03:08:46;;;;;;;6.87;6.37;;;21.60;93.80;;;;;;5076036;28;20708;-52
2022/07/23 03:11:12;;;;;;;8.00;7.40;;;21.60;93.80;;;;;;5075814;28;20196;-47
2022/07/23 03:13:38;;;;;;;7.30;6.57;;;21.60;93.90;;;;;;5075358;28;20190;-49
2022/07/23 03:16:04;;;;;;;7.73;7.13;;;21.60;94.00;;;;;;5076001;28;20688;-50
2022/07/23 03:18:30;;;;;;;8.07;7.37;;;21.70;94.00;;;;;;5076372;28;20516;-50
2022/07/23 03:20:56;;;;;;;7.27;6.67;;;21.70;94.00;;;;;;5076586;28;20429;-49
2022/07/23 03:23:21;;;;;;;7.90;7.30;;;21.70;94.00;;;;;;5077047;28;20186;-51
2022/07/23 03:25:50;;;;;;;8.20;7.50;;;21.70;94.00;;;;;;5076498;28;20224;-49
2022/07/23 03:28:16;;;;;;;7.70;7.00;;;21.70;94.00;;;;;;5077244;28;20338;-52
2022/07/23 03:30:43;;;;;;;7.93;7.17;;;21.70;93.90;;;;;;5076959;28;20455;-51
2022/07/23 03:33:08;;;;;;;7.77;7.17;;;21.70;93.70;;;;;;5080410;28;20476;-49
2022/07/23 03:35:34;;;;;;;7.73;7.13;;;21.70;93.60;;;;;;5081161;28;20413;-52
2022/07/23 03:38:00;;;;;;;7.40;6.80;;;21.70;93.50;;;;;;5080796;28;20181;-49
2022/07/23 03:40:25;;;;;;;7.20;6.60;;;21.80;93.80;;;;;;5080887;28;20180;-52
2022/07/23 03:42:51;;;;;;;7.53;6.93;;;21.80;93.80;;;;;;5080961;28;20194;-53
2022/07/23 03:45:17;;;;;;;7.80;7.20;;;21.80;93.90;;;;;;5079802;28;20205;-52
2022/07/23 03:47:44;;;;;;;7.90;7.30;;;21.80;93.70;;;;;;5080151;28;20191;-54
2022/07/23 03:50:10;;;;;;;7.13;6.63;;;21.80;93.70;;;;;;5080047;28;20433;-51
2022/07/23 03:52:35;;;;;;;8.37;7.67;;;21.80;93.90;;;;;;5080221;28;20410;-51
2022/07/23 03:55:03;;;;;;;7.10;6.50;;;21.80;93.70;;;;;;5079048;28;20422;-51
2022/07/23 03:57:28;;;;;;;7.30;6.80;;;21.80;93.60;;;;;;5078954;28;20240;-49
2022/07/23 03:59:54;;;;;;;8.03;7.33;;;21.70;93.70;;;;;;5080028;28;20516;-52
2022/07/23 04:02:19;;;;;;;8.53;7.80;;;21.70;94.00;;;;;;5080754;28;20179;-53
2022/07/23 04:04:46;;;;;;;8.00;7.30;;;21.70;94.10;;;;;;5080241;28;20207;-50
2022/07/23 04:07:12;;;;;;;8.60;8.00;;;21.70;94.10;;;;;;5080100;28;20179;-50
2022/07/23 04:09:40;;;;;;;8.13;7.47;;;21.70;94.20;;;;;;5079807;28;20519;-48
2022/07/23 04:12:06;;;;;;;7.27;6.67;;;21.70;94.20;;;;;;5079091;28;20713;-49
2022/07/23 04:14:32;;;;;;;7.47;6.87;;;21.70;94.20;;;;;;5079182;28;20548;-49
2022/07/23 04:16:58;;;;;;;7.93;7.23;;;21.70;94.20;;;;;;5078884;28;20501;-52
2022/07/23 04:19:23;;;;;;;7.97;7.37;;;21.70;94.30;;;;;;5079232;28;20849;-51
2022/07/23 04:21:49;;;;;;;7.50;6.90;;;21.80;94.40;;;;;;5080001;28;20176;-50
2022/07/23 04:24:14;;;;;;;7.53;6.93;;;21.70;94.30;;;;;;5080414;28;20237;-51
2022/07/23 04:26:40;;;;;;;7.03;6.53;;;21.80;94.30;;;;;;5080145;28;20177;-49
2022/07/23 04:29:06;;;;;;;8.03;7.37;;;21.90;93.80;;;;;;5078852;28;20193;-51
2022/07/23 04:31:31;;;;;;;8.20;7.50;;;21.90;93.60;;;;;;5079595;28;20215;-57
2022/07/23 04:33:57;;;;;;;8.30;7.47;;;21.90;93.70;;;;;;5078356;28;20178;-57
2022/07/23 04:36:22;;;;;;;7.37;6.67;;;21.90;93.50;;;;;;5077269;28;20307;-56
2022/07/23 04:38:48;;;;;;;7.20;6.60;;;22.00;93.40;;;;;;5077834;28;20181;-56
2022/07/23 04:41:14;;;;;;;8.63;7.23;;;22.00;93.50;;;;;;5076108;28;20170;-59
2022/07/23 04:43:39;;;;;;;9.07;8.37;;;22.00;93.60;;;;;;5076856;28;20501;-58
2022/07/23 04:46:05;;;;;;;7.43;6.73;;;22.10;93.50;;;;;;5076934;28;20525;-58
2022/07/23 04:48:31;;;;;;;8.10;7.40;;;22.10;93.50;;;;;;5077305;28;20190;-61
2022/07/23 04:50:57;;;;;;;8.70;7.73;;;22.10;93.40;;;;;;5078360;28;20703;-58
2022/07/23 04:53:23;;;;;;;8.30;7.40;;;22.20;93.30;;;;;;5078636;28;20581;-57
2022/07/23 04:55:48;;;;;;;8.53;7.73;;;22.30;93.40;;;;;;5078195;28;20458;-58
2022/07/23 04:58:14;;;;;;;8.63;7.93;;;22.30;92.80;;;;;;5077208;28;20503;-57
2022/07/23 05:00:40;;;;;;;8.80;8.00;;;22.40;92.50;;;;;;5077700;28;20617;-57
2022/07/23 05:03:05;;;;;;;8.70;7.07;;;22.40;92.60;;;;;;5076837;28;20186;-54
2022/07/23 05:05:31;;;;;;;7.80;7.20;;;22.40;92.60;;;;;;5076812;28;20206;-57
2022/07/23 05:07:57;;;;;;;8.20;7.60;;;22.50;92.40;;;;;;5075254;28;20183;-58
2022/07/23 05:10:22;;;;;;;7.70;7.07;;;22.40;92.30;;;;;;5075508;28;20178;-57
2022/07/23 05:12:48;;;;;;;8.53;7.80;;;22.50;92.20;;;;;;5076155;28;20171;-57
2022/07/23 05:15:13;;;;;;;8.67;7.87;;;22.50;92.20;;;;;;5076694;28;20186;-57
2022/07/23 05:17:39;;;;;;;7.70;7.10;;;22.50;91.70;;;;;;5076381;28;20189;-58
2022/07/23 05:20:05;;;;;;;8.10;7.47;;;22.60;91.10;;;;;;5076144;28;20179;-59
2022/07/23 05:22:31;;;;;;;8.90;8.20;;;22.50;90.60;;;;;;5074440;28;20183;-57
2022/07/23 05:24:56;;;;;;;8.67;7.87;;;22.50;91.00;;;;;;5075735;28;20489;-60
2022/07/23 05:27:23;;;;;;;8.40;7.80;;;22.40;91.50;;;;;;5075098;28;20174;-59
2022/07/23 05:29:49;;;;;;;8.17;7.47;;;22.50;91.60;;;;;;5076996;28;20173;-59
2022/07/23 05:32:14;;;;;;;8.60;7.90;;;22.50;91.50;;;;;;5076207;28;20551;-58
2022/07/23 05:34:40;;;;;;;8.47;7.77;;;22.60;91.50;;;;;;5076985;28;20188;-58
2022/07/23 05:37:06;;;;;;;8.70;7.80;;;22.80;91.30;;;;;;5074831;28;20190;-58
2022/07/23 05:39:31;;;;;;;9.07;8.37;;;22.90;90.90;;;;;;5076438;28;20168;-58
2022/07/23 05:41:57;;;;;;;10.47;9.57;;;22.90;90.90;;;;;;5076451;28;20185;-59
2022/07/23 05:44:23;;;;;;;8.00;7.30;;;23.00;90.90;;;;;;5076346;28;20652;-59
2022/07/23 05:46:48;;;;;;;9.23;8.33;;;23.00;90.80;;;;;;5075914;28;20223;-57
2022/07/23 05:49:14;;;;;;;8.00;7.30;;;23.00;90.60;;;;;;5074766;28;20273;-59
2022/07/23 05:51:40;;;;;;;8.83;8.23;;;23.00;90.90;;;;;;5078762;28;20535;-58
2022/07/23 05:54:05;;;;;;;8.90;8.20;;;23.00;91.00;;;;;;5078381;28;20266;-60
2022/07/23 05:56:31;;;;;;;9.03;8.33;;;23.00;90.80;;;;;;5076551;28;20215;-58
2022/07/23 05:58:57;;;;;;;9.03;8.17;;;23.00;90.80;;;;;;5077936;28;20195;-57
2022/07/23 06:01:23;;;;;;;8.60;7.90;;;22.90;90.90;;;;;;5076622;28;20208;-59
2022/07/23 06:03:48;;;;;;;8.80;8.00;;;23.00;91.00;;;;;;5075802;28;20192;-57
2022/07/23 06:06:14;;;;;;;8.90;8.20;;;23.00;90.90;;;;;;5074751;28;20427;-55
2022/07/23 06:08:40;;;;;;;9.17;8.43;;;23.10;90.80;;;;;;5075762;28;20218;-55
2022/07/23 06:11:05;;;;;;;9.03;8.17;;;23.20;90.90;;;;;;5075079;28;20285;-56
2022/07/23 06:13:31;;;;;;;10.70;9.80;;;23.40;90.80;;;;;;5075084;28;20185;-57
2022/07/23 06:15:57;;;;;;;9.83;9.13;;;23.60;90.60;;;;;;5075564;28;20205;-56
2022/07/23 06:18:22;;;;;;;9.93;9.13;;;23.80;90.40;;;;;;5076298;28;20177;-55
2022/07/23 06:20:48;;;;;;;10.77;9.77;;;24.00;90.50;;;;;;5076531;28;20199;-58
2022/07/23 06:23:14;;;;;;;10.33;9.53;;;24.10;89.90;;;;;;5075260;28;20276;-56
2022/07/23 06:25:39;;;;;;;10.47;9.67;;;24.20;90.00;;;;;;5075196;28;20212;-57
2022/07/23 06:28:05;;;;;;;11.00;10.10;;;24.20;90.00;;;;;;5075108;28;20237;-56
2022/07/23 06:30:31;;;;;;;11.73;10.63;;;24.20;90.00;;;;;;5074632;28;20569;-56
2022/07/23 06:32:58;;;;;;;10.83;10.03;;;24.10;90.20;;;;;;5073209;28;20528;-56
2022/07/23 06:35:24;;;;;;;11.30;10.37;;;23.90;90.40;;;;;;5053387;28;20203;-57
2022/07/23 06:37:49;;;;;;;11.80;10.90;;;23.80;90.80;;;;;;5054489;28;20426;-57
2022/07/23 06:40:15;;;;;;;10.00;9.30;;;23.70;91.00;;;;;;5061175;28;20223;-56
2022/07/23 06:42:41;;;;;;;10.77;9.77;;;23.80;90.90;;;;;;5074873;28;20570;-59
2022/07/23 06:45:07;;;;;;;11.00;10.10;;;23.90;90.80;;;;;;5074916;28;20307;-58
2022/07/23 06:47:32;;;;;;;9.80;9.07;;;24.00;91.00;;;;;;5076387;28;20452;-56
2022/07/23 06:49:58;;;;;;;9.70;8.90;;;24.00;90.70;;;;;;5076084;28;20589;-58
2022/07/23 06:52:25;;;;;;;10.90;10.00;;;24.10;90.70;;;;;;5074820;28;20340;-57
2022/07/23 06:54:51;;;;;;;11.00;10.20;;;24.10;90.80;;;;;;5075423;28;20588;-56
2022/07/23 06:57:17;;;;;;;10.43;9.40;;;24.10;90.40;;;;;;5075949;28;20501;-57
2022/07/23 06:59:43;;;;;;;10.20;9.40;;;24.10;90.30;;;;;;5074758;28;20552;-53
2022/07/23 07:02:08;;;;;;;10.57;9.73;;;24.20;90.20;;;;;;5075558;28;20182;-57
2022/07/23 07:04:34;;;;;;;10.27;9.50;;;24.20;90.00;;;;;;5074327;28;20219;-54
2022/07/23 07:07:00;;;;;;;10.67;9.77;;;24.20;89.50;;;;;;5074186;28;20172;-59
2022/07/23 07:09:25;;;;;;;9.63;8.93;;;24.20;89.30;;;;;;5074888;28;20195;-58
2022/07/23 07:11:51;;;;;;;9.73;8.93;;;24.10;89.60;;;;;;5075517;28;20171;-55
2022/07/23 07:14:17;;;;;;;10.43;9.63;;;24.00;89.70;;;;;;5075994;28;20574;-56
2022/07/23 07:16:42;;;;;;;9.30;8.50;;;24.00;89.50;;;;;;5074807;28;20195;-57
2022/07/23 07:19:08;;;;;;;10.00;9.20;;;24.10;89.70;;;;;;5074769;28;20545;-56
2022/07/23 07:21:34;;;;;;;8.97;8.27;;;24.30;89.80;;;;;;5074444;28;20549;-57
2022/07/23 07:24:00;;;;;;;9.70;8.90;;;24.60;88.80;;;;;;5075490;28;20251;-55
2022/07/23 07:26:25;;;;;;;10.23;9.53;;;24.90;87.50;;;;;;5075453;28;20194;-57
2022/07/23 07:28:51;;;;;;;9.73;9.03;;;25.30;85.90;;;;;;5073547;28;20187;-56
2022/07/23 07:31:16;;;;;;;9.70;8.90;;;25.50;84.90;;;;;;5074540;28;20233;-57
2022/07/23 07:33:42;;;;;;;9.20;8.40;;;25.80;85.30;;;;;;5074843;28;20185;-54
2022/07/23 07:36:08;;;;;;;8.60;8.00;;;26.00;83.10;;;;;;5075404;28;20263;-42
2022/07/23 07:38:34;;;;;;;10.07;9.17;;;26.10;82.10;;;;;;5076296;28;20181;-40
2022/07/23 07:41:00;;;;;;;10.23;9.47;;;26.30;81.60;;;;;;5075432;28;20467;-42
2022/07/23 07:43:26;;;;;;;9.80;9.00;;;26.40;80.50;;;;;;5073784;28;20489;-42
2022/07/23 07:45:52;;;;;;;9.60;8.83;;;26.60;81.50;;;;;;5075899;28;20213;-43
2022/07/23 07:48:18;;;;;;;8.90;8.20;;;26.90;79.00;;;;;;5075653;28;20417;-45
2022/07/23 07:50:43;;;;;;;8.27;7.57;;;27.20;78.20;;;;;;5075289;28;20529;-42
2022/07/23 07:53:09;;;;;;;9.23;8.43;;;27.40;75.20;;;;;;5074787;28;20177;-42
2022/07/23 07:55:35;;;;;;;8.60;7.93;;;27.60;73.50;;;;;;5074451;28;20204;-43
2022/07/23 07:58:01;;;;;;;9.07;8.37;;;27.80;73.10;;;;;;5075502;28;20246;-42
2022/07/23 08:00:26;;;;;;;8.93;8.23;;;27.90;72.50;;;;;;5073170;28;20185;-42
2022/07/23 08:02:53;;;;;;;9.30;8.50;;;28.00;71.70;;;;;;5074347;28;20182;-41
2022/07/23 08:05:24;;;;;;;9.87;9.10;;;28.00;72.40;;;;;;5072856;28;20217;-43
2022/07/23 08:07:50;;;;;;;9.30;8.60;;;27.80;73.10;;;;;;5073494;28;20501;-40
2022/07/23 08:10:17;;;;;;;9.03;8.23;;;28.00;71.80;;;;;;5073232;28;20433;-42
2022/07/23 08:12:46;;;;;;;8.93;8.23;;;27.90;71.20;;;;;;5074186;28;20508;-44
2022/07/23 08:15:13;;;;;;;8.50;7.80;;;27.90;69.30;;;;;;5073131;28;20639;-43
2022/07/23 08:17:39;;;;;;;8.60;7.90;;;27.70;70.20;;;;;;5073423;28;20426;-42
2022/07/23 08:20:06;;;;;;;9.23;8.63;;;27.70;70.60;;;;;;5077355;28;20449;-41
2022/07/23 08:22:54;;;;;;;9.30;8.60;;;27.80;69.90;;;;;;5078135;28;20473;-41
2022/07/23 08:25:25;;;;;;;8.60;8.00;;;28.10;69.20;;;;;;5069033;28;20471;-41
2022/07/23 08:27:52;;;;;;;8.20;7.50;;;28.60;66.40;;;;;;5078966;28;20432;-42
2022/07/23 08:30:18;;;;;;;8.50;7.80;;;29.00;64.40;;;;;;5077407;28;20440;-40
2022/07/23 08:33:13;;;;;;;8.57;7.87;;;29.20;62.30;;;;;;5077709;28;20925;-43
2022/07/23 08:35:47;;;;;;;8.57;7.80;;;29.40;60.90;;;;;;5060443;28;20458;-40
2022/07/23 08:38:16;;;;;;;7.67;7.07;;;29.10;59.80;;;;;;5058709;28;20457;-43
2022/07/23 08:40:44;;;;;;;7.93;7.40;;;28.80;59.30;;;;;;5057735;28;20430;-43
2022/07/23 08:43:12;;;;;;;8.33;7.63;;;28.70;59.70;;;;;;5054653;28;20507;-41
2022/07/23 08:45:43;;;;;;;8.40;7.80;;;28.70;60.70;;;;;;5059121;28;20487;-41
2022/07/23 08:48:16;;;;;;;8.73;8.03;;;28.70;61.50;;;;;;5059229;28;20438;-42
2022/07/23 08:50:47;;;;;;;8.97;8.17;;;28.90;62.10;;;;;;5075063;28;20419;-44
2022/07/23 08:53:14;;;;;;;8.13;7.53;;;29.20;60.50;;;;;;5075901;28;20687;-42
2022/07/23 08:55:40;;;;;;;8.77;8.07;;;29.30;60.90;;;;;;5075491;28;20527;-43
2022/07/23 08:58:06;;;;;;;9.80;9.00;;;29.40;59.50;;;;;;5075387;28;20539;-41
2022/07/23 09:00:33;;;;;;;9.80;8.17;;;29.50;58.70;;;;;;5077386;28;20182;-43
2022/07/23 09:02:59;;;;;;;8.80;8.10;;;29.20;58.90;;;;;;5077678;28;20410;-42
2022/07/23 09:05:24;;;;;;;8.47;7.87;;;29.20;59.00;;;;;;5076675;28;20508;-45
2022/07/23 09:08:10;;;;;;;8.80;8.10;;;29.10;59.40;;;;;;5076056;28;20191;-43
2022/07/23 09:10:56;;;;;;;50.63;18.53;;;29.20;58.50;;;;;;5075533;28;20187;-44
2022/07/23 09:13:34;;;;;;;159.27;32.77;;;29.60;58.20;;;;;;5075549;28;20415;-43
2022/07/23 09:16:05;;;;;;;60.03;18.33;;;30.00;58.50;;;;;;5075071;28;20406;-44
2022/07/23 09:18:38;;;;;;;25.10;13.00;;;30.40;57.20;;;;;;5075258;28;20383;-44
2022/07/23 09:21:28;;;;;;;289.93;55.90;;;30.70;56.30;;;;;;5073635;28;20547;-43
2022/07/23 09:24:14;;;;;;;10.60;9.63;;;30.90;55.80;;;;;;5075690;28;20974;-42
2022/07/23 09:26:47;;;;;;;14.53;9.43;;;30.90;54.50;;;;;;5075679;28;20403;-43
2022/07/23 09:29:16;;;;;;;9.50;8.70;;;31.20;55.70;;;;;;5075912;28;20434;-43
2022/07/23 09:31:45;;;;;;;12.13;10.17;;;31.40;54.80;;;;;;5076133;28;20505;-40
2022/07/23 09:34:12;;;;;;;10.53;9.73;;;31.60;54.30;;;;;;5076508;28;20625;-42
2022/07/23 09:36:38;;;;;;;11.97;10.97;;;31.80;54.70;;;;;;5077495;28;20416;-40
2022/07/23 09:39:05;;;;;;;9.87;9.17;;;32.10;52.60;;;;;;5074903;28;20432;-40
2022/07/23 09:41:39;;;;;;;11.20;10.30;;;31.70;53.00;;;;;;5076031;28;20420;-46
2022/07/23 09:44:12;;;;;;;9.70;9.00;;;31.70;53.70;;;;;;5074539;28;20413;-43
2022/07/23 09:46:42;;;;;;;10.57;9.77;;;32.10;53.40;;;;;;5074836;28;20424;-42
2022/07/23 09:49:14;;;;;;;11.23;10.33;;;32.20;52.80;;;;;;5076075;28;20408;-43
2022/07/23 09:51:58;;;;;;;10.10;9.40;;;31.80;53.00;;;;;;5075399;28;20422;-45
2022/07/23 09:54:37;;;;;;;11.10;10.30;;;32.40;52.80;;;;;;5055880;28;20431;-42
2022/07/23 09:57:14;;;;;;;10.03;9.33;;;32.60;51.70;;;;;;5055939;28;20401;-41
2022/07/23 09:59:42;;;;;;;10.43;9.63;;;33.00;51.90;;;;;;5054853;28;20447;-41
2022/07/23 10:02:11;;;;;;;10.77;9.87;;;32.90;51.10;;;;;;5054540;28;20427;-41
2022/07/23 10:04:37;;;;;;;11.00;10.20;;;32.80;50.30;;;;;;5053809;28;20454;-43
2022/07/23 10:07:06;;;;;;;10.10;9.30;;;32.90;50.50;;;;;;5055874;28;20702;-41
2022/07/23 10:09:34;;;;;;;10.20;9.20;;;32.80;50.10;;;;;;5055387;28;20778;-44
2022/07/23 10:14:49;;;;;;;10.47;9.53;;;32.40;50.70;;;;;;5055751;28;20410;-42
2022/07/23 10:17:15;;;;;;;10.83;9.93;;;31.90;50.50;;;;;;5054468;28;20409;-43
2022/07/23 10:19:41;;;;;;;11.57;10.67;;;31.60;50.40;;;;;;5055980;28;20704;-42
2022/07/23 10:22:29;;;;;;;10.43;9.70;;;31.30;50.90;;;;;;5054403;28;20395;-45
2022/07/23 10:25:12;;;;;;;10.30;9.50;;;31.20;50.00;;;;;;5054221;28;20986;-42
2022/07/23 10:28:02;;;;;;;10.60;9.80;;;31.50;49.50;;;;;;5053518;28;20393;-43
2022/07/23 10:31:07;;;;;;;10.13;9.33;;;32.00;50.60;;;;;;5052648;28;20423;-43
2022/07/23 10:34:00;;;;;;;9.63;8.93;;;32.70;50.10;;;;;;5053867;28;20796;-43
2022/07/23 10:36:42;;;;;;;10.50;9.70;;;33.50;47.80;;;;;;5053775;28;20421;-42
2022/07/23 10:39:14;;;;;;;10.40;9.50;;;33.70;47.40;;;;;;5053976;28;20448;-42
2022/07/23 10:41:41;;;;;;;10.73;9.87;;;33.50;46.40;;;;;;5053677;28;20412;-46
2022/07/23 10:44:11;;;;;;;9.77;9.00;;;33.40;46.90;;;;;;5052710;28;20568;-43
2022/07/23 10:49:44;;;;;;;9.80;8.97;;;33.70;46.90;;;;;;5066021;28;20438;-41
2022/07/23 10:52:21;;;;;;;9.50;8.80;;;34.50;46.80;;;;;;5074204;28;20395;-43
2022/07/23 10:54:57;;;;;;;155.63;32.20;;;34.60;45.00;;;;;;5074827;28;20185;-43
2022/07/23 10:57:27;;;;;;;24.00;11.43;;;34.20;45.20;;;;;;5075975;28;20405;-42
2022/07/23 11:00:09;;;;;;;9.40;8.70;;;33.80;46.10;;;;;;5075307;28;20493;-43
2022/07/23 11:02:37;;;;;;;9.20;8.60;;;33.70;46.50;;;;;;5076269;28;20448;-45
2022/07/23 11:05:08;;;;;;;7.83;7.33;;;34.00;45.20;;;;;;5075103;28;20793;-42
2022/07/23 11:07:35;;;;;;;9.27;8.37;;;34.70;45.00;;;;;;5073629;28;20422;-41
2022/07/23 11:10:02;;;;;;;8.93;8.23;;;35.40;44.90;;;;;;5074372;28;20412;-42
2022/07/23 11:12:27;;;;;;;9.90;9.00;;;35.40;43.10;;;;;;5074068;28;20430;-43
2022/07/23 11:15:14;;;;;;;9.70;9.00;;;34.00;42.80;;;;;;5073263;28;20425;-42
2022/07/23 11:18:01;;;;;;;9.20;8.50;;;33.10;44.40;;;;;;5075348;28;20184;-42
2022/07/23 11:20:27;;;;;;;9.47;8.77;;;33.00;45.10;;;;;;5074947;28;20402;-41
2022/07/23 11:22:58;;;;;;;9.23;8.53;;;32.70;44.40;;;;;;5072438;28;20445;-41
2022/07/23 11:25:28;;;;;;;10.20;9.50;;;32.60;45.50;;;;;;5074172;28;20293;-41
2022/07/23 11:27:54;;;;;;;10.10;9.40;;;32.70;45.30;;;;;;5072514;28;20424;-42
2022/07/23 11:30:25;;;;;;;9.10;8.40;;;33.20;46.80;;;;;;5071469;28;20835;-42
2022/07/23 11:32:51;;;;;;;10.30;9.50;;;33.90;46.00;;;;;;5075074;28;20449;-42
2022/07/23 11:35:21;;;;;;;11.20;10.13;;;34.30;44.70;;;;;;5075284;28;20784;-45
2022/07/23 11:37:47;;;;;;;11.03;10.13;;;34.30;43.90;;;;;;5073950;28;20172;-44
2022/07/23 11:40:16;;;;;;;110.97;28.93;;;34.40;44.20;;;;;;5073318;28;20716;-44
2022/07/23 11:42:56;;;;;;;65.57;21.73;;;34.50;43.50;;;;;;5073636;28;20484;-41
2022/07/23 11:45:23;;;;;;;12.33;10.07;;;34.40;43.60;;;;;;5073009;28;20456;-43
2022/07/23 11:47:49;;;;;;;10.37;9.67;;;34.50;44.00;;;;;;5073736;28;20800;-45
2022/07/23 11:50:15;;;;;;;9.53;8.83;;;34.30;42.20;;;;;;5073684;28;20516;-42
2022/07/23 11:52:40;;;;;;;10.00;9.30;;;33.30;43.10;;;;;;5074239;28;20479;-42
2022/07/23 11:55:09;;;;;;;9.90;9.00;;;33.00;44.80;;;;;;5078681;28;20189;-43
2022/07/23 11:57:37;;;;;;;10.63;9.50;;;33.80;44.20;;;;;;5078239;28;20615;-43
2022/07/23 12:00:13;;;;;;;10.17;9.37;;;34.20;44.30;;;;;;5076847;28;20776;-44
2022/07/23 12:02:50;;;;;;;10.23;9.23;;;34.60;42.70;;;;;;5075681;28;20410;-42
2022/07/23 12:05:28;;;;;;;9.20;8.60;;;34.00;41.80;;;;;;5075690;28;20490;-43
2022/07/23 12:07:55;;;;;;;10.00;9.20;;;33.40;42.50;;;;;;5076629;28;20399;-42
2022/07/23 12:10:30;;;;;;;9.47;8.70;;;33.80;43.20;;;;;;5077205;28;20533;-44
2022/07/23 12:13:13;;;;;;;10.00;9.20;;;34.10;43.00;;;;;;5077710;28;20469;-44
2022/07/23 12:15:40;;;;;;;9.60;8.80;;;33.90;42.70;;;;;;5076166;28;20981;-43
2022/07/23 12:18:07;;;;;;;8.90;8.20;;;34.00;43.90;;;;;;5074406;28;20461;-45
2022/07/23 12:20:37;;;;;;;9.40;8.70;;;34.50;43.10;;;;;;5073311;28;20498;-44
2022/07/23 12:23:05;;;;;;;9.10;8.37;;;34.90;42.50;;;;;;5074017;28;20415;-43
2022/07/23 12:25:32;;;;;;;9.50;8.80;;;35.50;43.00;;;;;;5074001;28;20740;-42
2022/07/23 12:28:05;;;;;;;8.93;8.33;;;35.90;42.70;;;;;;5074077;28;20685;-43
2022/07/23 12:30:50;;;;;;;9.50;8.90;;;35.70;41.70;;;;;;5074520;28;20913;-43
2022/07/23 12:33:23;;;;;;;9.43;8.73;;;35.40;41.60;;;;;;5074565;28;20982;-45
2022/07/23 12:35:49;;;;;;;9.73;9.13;;;35.30;41.60;;;;;;5074510;28;20486;-44
2022/07/23 12:38:17;;;;;;;9.97;9.33;;;35.30;40.90;;;;;;5074651;28;20395;-42
2022/07/23 12:40:46;;;;;;;9.30;8.60;;;35.50;41.60;;;;;;5074964;28;20419;-46
2022/07/23 12:43:33;;;;;;;14.17;12.97;;;36.10;42.30;;;;;;5074925;28;20673;-47
2022/07/23 12:46:02;;;;;;;9.93;9.20;;;36.60;40.70;;;;;;5074316;28;20445;-44
2022/07/23 12:48:29;;;;;;;11.70;10.90;;;36.20;40.60;;;;;;5074487;28;20397;-42
2022/07/23 12:51:05;;;;;;;10.27;9.53;;;35.70;41.20;;;;;;5075693;28;20434;-41
2022/07/23 12:53:36;;;;;;;10.27;9.57;;;35.20;41.40;;;;;;5077561;28;20747;-42